Impacts METAR Board
IDs:

KCFD - Bryan/Coulter Fld, TX, US

Updated at: 0900 UTC 07 Dec 2022
Potential Impact None Slight Moderate High
Time 06/21Z 06/22Z 06/23Z 07/00Z 07/01Z 07/02Z 07/03Z 07/04Z 07/05Z 07/06Z 07/07Z 07/08Z 07/09Z
Temp77 79 78 75 74 75 74 73 73 73 72 72 71
Dewpt67 67 67 67 67 69 69 69 69 69 69 69 68
Altim29.96 29.97 29.98 29.99 30.01 30.03 30.05 30.06 30.08 30.09 30.11 30.13 30.14
VIS10 10 10 10 10 10 10 10 10 10 10 10 10
CIG33 39 -- -- 34 -- 15 -- 41 15 21 23 25
CoverOVCBKNSCTSCTOVCSCTBKNSCTBKNOVCOVCOVCOVC
FltCatVFRVFRVFRVFRVFRVFRMVFRVFRVFRMVFRMVFRMVFRMVFR
WX--------------------------
WDir1901701800160180180160170180190190180
WSpd6 7 4 0 4 7 5 12 11 10 7 5 7
WGst-- -- -- -- -- -- -- 15 14 -- -- -- --
Raw hourly METARs
KCFD 062055Z AUTO 19006KT 10SM OVC033 25/20 A2996 RMK AO2 T02510197
KCFD 062155Z AUTO 17007KT 10SM BKN039 26/19 A2997 RMK AO2 T02610194
KCFD 062255Z AUTO 18004KT 10SM SCT043 26/20 A2998 RMK AO2 T02560195
KCFD 062355Z AUTO 00000KT 10SM SCT045 24/19 A2999 RMK AO2 T02400193 10263 20230
KCFD 070055Z AUTO 16004KT 10SM SCT027 BKN034 OVC045 23/20 A3001 RMK AO2 T02310196
KCFD 070155Z AUTO 18007KT 10SM SCT028 SCT034 SCT046 24/21 A3003 RMK AO2 T02370205
KCFD 070255Z AUTO 18005KT 10SM BKN015 BKN048 23/21 A3005 RMK AO2 T02310205
KCFD 070355Z AUTO 16012G15KT 10SM SCT015 23/21 A3006 RMK AO2 T02290207
KCFD 070455Z AUTO 17011G14KT 10SM SCT015 BKN041 23/21 A3008 RMK AO2 T02280206
KCFD 070555Z AUTO 18010KT 10SM BKN015 OVC041 23/21 A3009 RMK AO2 T02270205 10241 20221 402630205
KCFD 070655Z AUTO 19007KT 10SM SCT014 BKN021 OVC034 22/21 A3011 RMK AO2 T02220205
KCFD 070755Z AUTO 19005KT 10SM SCT018 OVC023 22/20 A3013 RMK AO2 T02210203
KCFD 070855Z AUTO 18007KT 10SM SCT013 BKN025 OVC042 22/20 A3014 RMK AO2 T02190201



Page loaded:  09:44 UTC  |   01:44 AM Pacific  |   02:44 AM Mountain  |   03:44 AM Central  |   04:44 AM Eastern

 

ADVISORIES

FORECASTS

FORECASTS

OBSERVATIONS

USER TOOLS

ABOUT US